Time;durP1;ratioP1;P1;durP2;ratioP2;P2;SDS_P1;SDS_P2;PMS_P1;PMS_P2;Temp;Humidity;BMP_temperature;BMP_pressure;BME280_temperature;BME280_humidity;BME280_pressure;Samples;Min_cycle;Max_cycle;Signal;HPM_P1;HPM_P2
2022/02/19 00:00:35;;;;;;;1.00;0.85;;;;;;;;;;5075696;28;20381;-44
2022/02/19 00:03:03;;;;;;;2.83;0.50;;;;;;;;;;5074470;28;20032;-45
2022/02/19 00:05:29;;;;;;;1.38;0.73;;;;;;;;;;5075589;28;20539;-45
2022/02/19 00:07:56;;;;;;;1.50;0.70;;;;;;;;;;5074513;28;20444;-45
2022/02/19 00:10:22;;;;;;;0.73;0.40;;;;;;;;;;5074689;28;20032;-44
2022/02/19 00:12:48;;;;;;;1.27;0.50;;;;;;;;;;5074277;28;20032;-50
2022/02/19 00:15:15;;;;;;;1.25;0.77;;;;;;;;;;5074952;28;20021;-44
2022/02/19 00:17:41;;;;;;;0.52;0.45;;;;;;;;;;5075199;28;20036;-45
2022/02/19 00:20:07;;;;;;;2.20;1.02;;;;;;;;;;5074260;28;20020;-45
2022/02/19 00:22:35;;;;;;;1.38;0.52;;;;;;;;;;5075148;28;20103;-44
2022/02/19 00:25:02;;;;;;;1.33;0.63;;;;;;;;;;5056124;28;20028;-45
2022/02/19 00:27:28;;;;;;;1.67;0.73;;;;;;;;;;5073826;28;20047;-45
2022/02/19 00:29:54;;;;;;;1.30;0.52;;;;;;;;;;5074090;28;20040;-44
2022/02/19 00:32:20;;;;;;;2.17;0.52;;;;;;;;;;5075013;28;20016;-44
2022/02/19 00:34:46;;;;;;;1.00;0.52;;;;;;;;;;5074895;28;20021;-50
2022/02/19 00:37:12;;;;;;;1.20;0.77;;;;;;;;;;5073717;28;20583;-44
2022/02/19 00:39:38;;;;;;;2.13;0.65;;;;;;;;;;5056797;28;20377;-45
2022/02/19 00:42:05;;;;;;;0.93;0.52;;;;;;;;;;5073946;28;20025;-45
2022/02/19 00:44:32;;;;;;;2.35;0.85;;;;;;;;;;5055089;28;20398;-47
2022/02/19 00:46:58;;;;;;;2.13;0.68;;;;;;;;;;5058513;28;20025;-49
2022/02/19 00:49:24;;;;;;;1.67;0.70;;;;;;;;;;5074449;28;20032;-46
2022/02/19 00:51:50;;;;;;;2.40;0.88;;;;;;;;;;5073513;28;20033;-47
2022/02/19 00:54:17;;;;;;;2.47;0.80;;;;;;;;;;5073909;28;20359;-44
2022/02/19 00:56:43;;;;;;;2.72;0.60;;;;;;;;;;5074417;28;20039;-44
2022/02/19 00:59:09;;;;;;;1.52;0.80;;;;;;;;;;5073637;28;20115;-44
2022/02/19 01:01:37;;;;;;;0.93;0.60;;;;;;;;;;5074785;28;20031;-44
2022/02/19 01:04:03;;;;;;;1.42;0.70;;;;;;;;;;5074478;28;20028;-45
2022/02/19 01:06:29;;;;;;;2.10;0.70;;;;;;;;;;5074026;28;20032;-44
2022/02/19 01:08:55;;;;;;;2.50;0.60;;;;;;;;;;5073559;28;20111;-44
2022/02/19 01:11:21;;;;;;;1.52;0.70;;;;;;;;;;5073320;28;20043;-44
2022/02/19 01:13:48;;;;;;;1.02;0.60;;;;;;;;;;5056208;28;20546;-49
2022/02/19 01:16:15;;;;;;;1.25;0.45;;;;;;;;;;5055886;28;20041;-44
2022/02/19 01:18:41;;;;;;;2.65;0.95;;;;;;;;;;5073970;28;20492;-44
2022/02/19 01:21:07;;;;;;;1.42;0.70;;;;;;;;;;5072909;28;20094;-45
2022/02/19 01:23:33;;;;;;;1.40;0.50;;;;;;;;;;5073246;28;20065;-44
2022/02/19 01:25:59;;;;;;;1.38;0.70;;;;;;;;;;5073105;28;20463;-45
2022/02/19 01:28:25;;;;;;;2.50;0.70;;;;;;;;;;5073714;28;20460;-45
2022/02/19 01:30:51;;;;;;;2.22;0.60;;;;;;;;;;5072986;28;20060;-49
2022/02/19 01:33:17;;;;;;;1.65;0.65;;;;;;;;;;5073486;28;20117;-45
2022/02/19 01:35:43;;;;;;;2.00;0.50;;;;;;;;;;5074099;28;20024;-44
2022/02/19 01:38:09;;;;;;;1.48;0.50;;;;;;;;;;5072670;28;20047;-45
2022/02/19 01:40:35;;;;;;;2.60;0.65;;;;;;;;;;5073613;28;20025;-44
2022/02/19 01:43:01;;;;;;;1.20;0.50;;;;;;;;;;5072380;28;20066;-46
2022/02/19 01:45:27;;;;;;;3.17;0.93;;;;;;;;;;5073628;28;20461;-44
2022/02/19 01:47:53;;;;;;;3.50;1.25;;;;;;;;;;5072459;28;20071;-46
2022/02/19 01:50:19;;;;;;;1.40;0.82;;;;;;;;;;5072760;28;20052;-44
2022/02/19 01:52:45;;;;;;;1.35;0.43;;;;;;;;;;5073349;28;20049;-45
2022/02/19 01:55:12;;;;;;;0.75;0.40;;;;;;;;;;5072123;28;20178;-44
2022/02/19 01:57:38;;;;;;;2.70;0.63;;;;;;;;;;5073078;28;20454;-47
2022/02/19 02:00:08;;;;;;;1.60;0.68;;;;;;;;;;5072289;28;20032;-47
2022/02/19 02:02:34;;;;;;;1.45;0.85;;;;;;;;;;5073187;28;20095;-49
2022/02/19 02:05:00;;;;;;;2.05;0.60;;;;;;;;;;5072499;28;20028;-47
2022/02/19 02:07:27;;;;;;;3.28;0.85;;;;;;;;;;5072287;28;20082;-46
2022/02/19 02:09:53;;;;;;;1.85;1.23;;;;;;;;;;5071878;28;20469;-48
2022/02/19 02:12:19;;;;;;;1.42;0.52;;;;;;;;;;5073146;28;20032;-47
2022/02/19 02:14:45;;;;;;;1.17;0.77;;;;;;;;;;5073038;28;20032;-47
2022/02/19 02:17:12;;;;;;;1.67;0.70;;;;;;;;;;5072037;28;20654;-44
2022/02/19 02:19:38;;;;;;;1.23;0.80;;;;;;;;;;5072558;28;20024;-46
2022/02/19 02:22:05;;;;;;;1.60;0.80;;;;;;;;;;5071948;28;20496;-46
2022/02/19 02:24:36;;;;;;;1.42;0.57;;;;;;;;;;5073036;28;20031;-45
2022/02/19 02:27:07;;;;;;;3.63;0.73;;;;;;;;;;5072217;28;20025;-45
2022/02/19 02:29:33;;;;;;;1.67;0.60;;;;;;;;;;5072691;28;20103;-45
2022/02/19 02:31:59;;;;;;;2.20;0.52;;;;;;;;;;5072077;28;20047;-45
2022/02/19 02:34:25;;;;;;;2.20;1.08;;;;;;;;;;5072388;28;20025;-45
2022/02/19 02:36:51;;;;;;;1.27;0.75;;;;;;;;;;5073732;28;20031;-52
2022/02/19 02:39:17;;;;;;;2.63;1.00;;;;;;;;;;5090161;28;20032;-47
2022/02/19 02:41:43;;;;;;;3.20;1.13;;;;;;;;;;5092864;28;20476;-45
2022/02/19 02:44:09;;;;;;;1.58;0.85;;;;;;;;;;5091816;28;20016;-46
2022/02/19 02:46:35;;;;;;;1.42;0.75;;;;;;;;;;5092943;28;20024;-48
2022/02/19 02:49:00;;;;;;;1.27;0.75;;;;;;;;;;5091564;28;20403;-45
2022/02/19 02:51:27;;;;;;;3.38;0.68;;;;;;;;;;5092000;28;20035;-45
2022/02/19 02:53:55;;;;;;;1.45;0.60;;;;;;;;;;5091989;28;20481;-51
2022/02/19 02:56:21;;;;;;;0.80;0.55;;;;;;;;;;5092579;28;20027;-46
2022/02/19 02:58:47;;;;;;;1.90;0.80;;;;;;;;;;5092214;28;20039;-47
2022/02/19 03:01:13;;;;;;;0.93;0.63;;;;;;;;;;5085787;28;20028;-46
2022/02/19 03:03:39;;;;;;;1.55;0.80;;;;;;;;;;5082221;28;20023;-48
2022/02/19 03:06:05;;;;;;;2.83;0.63;;;;;;;;;;5081560;28;20021;-45
2022/02/19 03:08:31;;;;;;;2.40;0.80;;;;;;;;;;5080499;28;20055;-51
2022/02/19 03:10:57;;;;;;;3.10;1.27;;;;;;;;;;5086146;28;20027;-51
2022/02/19 03:13:23;;;;;;;1.95;0.60;;;;;;;;;;5080051;28;20051;-49
2022/02/19 03:15:49;;;;;;;2.63;0.65;;;;;;;;;;5082207;28;20024;-46
2022/02/19 03:18:17;;;;;;;1.30;0.65;;;;;;;;;;5081448;28;20029;-49
2022/02/19 03:20:43;;;;;;;1.95;1.08;;;;;;;;;;5085160;28;20094;-47
2022/02/19 03:23:09;;;;;;;1.98;0.98;;;;;;;;;;5080335;28;20116;-49
2022/02/19 03:25:35;;;;;;;1.98;0.77;;;;;;;;;;5081618;28;20095;-45
2022/02/19 03:28:01;;;;;;;2.85;0.95;;;;;;;;;;5078734;28;20036;-49
2022/02/19 03:30:27;;;;;;;2.42;0.68;;;;;;;;;;5084087;28;20037;-44
2022/02/19 03:32:54;;;;;;;2.70;0.90;;;;;;;;;;5081780;28;20027;-51
2022/02/19 03:35:20;;;;;;;1.95;0.77;;;;;;;;;;5079443;28;20027;-46
2022/02/19 03:37:46;;;;;;;1.50;0.60;;;;;;;;;;5071728;28;20115;-45
2022/02/19 03:40:12;;;;;;;1.45;0.80;;;;;;;;;;5060025;28;20507;-45
2022/02/19 03:42:39;;;;;;;1.45;0.60;;;;;;;;;;5063324;28;20037;-46
2022/02/19 03:45:07;;;;;;;2.28;0.85;;;;;;;;;;5062937;28;20070;-45
2022/02/19 03:47:34;;;;;;;2.83;0.80;;;;;;;;;;5063313;28;20029;-45
2022/02/19 03:50:00;;;;;;;1.60;0.60;;;;;;;;;;5058630;28;20044;-46
2022/02/19 03:52:26;;;;;;;3.67;1.05;;;;;;;;;;5064752;28;20033;-44
2022/02/19 03:54:52;;;;;;;2.03;0.70;;;;;;;;;;5059757;28;20017;-51
2022/02/19 03:57:18;;;;;;;1.10;0.55;;;;;;;;;;5063585;28;20055;-45
2022/02/19 03:59:44;;;;;;;1.65;0.90;;;;;;;;;;5059403;28;20021;-45
2022/02/19 04:02:10;;;;;;;1.02;0.55;;;;;;;;;;5062010;28;20763;-45
2022/02/19 04:04:36;;;;;;;1.83;0.60;;;;;;;;;;5061039;28;20501;-45
2022/02/19 04:07:03;;;;;;;1.27;0.60;;;;;;;;;;5060915;28;20025;-44
2022/02/19 04:09:28;;;;;;;6.57;0.90;;;;;;;;;;5061631;28;20483;-44
2022/02/19 04:11:54;;;;;;;1.70;0.80;;;;;;;;;;5065803;28;20095;-52
2022/02/19 04:14:20;;;;;;;2.55;0.70;;;;;;;;;;5061671;28;20025;-45
2022/02/19 04:16:46;;;;;;;3.72;1.45;;;;;;;;;;5061244;28;20017;-45
2022/02/19 04:19:12;;;;;;;2.42;0.85;;;;;;;;;;5059598;28;20025;-45
2022/02/19 04:21:38;;;;;;;1.98;1.15;;;;;;;;;;5063395;28;20036;-47
2022/02/19 04:24:04;;;;;;;3.40;0.88;;;;;;;;;;5058787;28;20044;-45
2022/02/19 04:26:30;;;;;;;5.30;0.90;;;;;;;;;;5062993;28;20052;-45
2022/02/19 04:28:56;;;;;;;3.22;1.30;;;;;;;;;;5062847;28;20553;-45
2022/02/19 04:31:22;;;;;;;0.90;0.50;;;;;;;;;;5064061;28;20025;-45
2022/02/19 04:33:48;;;;;;;2.05;0.70;;;;;;;;;;5060043;28;20457;-44
2022/02/19 04:36:14;;;;;;;2.90;1.25;;;;;;;;;;5061406;28;20153;-47
2022/02/19 04:38:40;;;;;;;3.03;0.70;;;;;;;;;;5058546;28;20402;-48
2022/02/19 04:41:06;;;;;;;4.18;1.15;;;;;;;;;;5063136;28;20031;-45
2022/02/19 04:43:32;;;;;;;1.40;0.63;;;;;;;;;;5060034;28;20029;-45
2022/02/19 04:45:58;;;;;;;1.83;1.00;;;;;;;;;;5063745;28;20547;-44
2022/02/19 04:48:24;;;;;;;2.05;0.73;;;;;;;;;;5062829;28;20033;-45
2022/02/19 04:50:50;;;;;;;1.80;0.60;;;;;;;;;;5063753;28;20017;-48
2022/02/19 04:53:17;;;;;;;2.38;0.80;;;;;;;;;;5065455;28;20500;-45
2022/02/19 04:55:43;;;;;;;2.17;0.93;;;;;;;;;;5062354;28;20104;-45
2022/02/19 04:58:09;;;;;;;2.63;0.90;;;;;;;;;;5065165;28;20036;-44
2022/02/19 05:00:35;;;;;;;3.13;0.65;;;;;;;;;;5063984;28;20100;-45
2022/02/19 05:03:01;;;;;;;0.90;0.52;;;;;;;;;;5044197;28;20043;-45
2022/02/19 05:05:27;;;;;;;1.45;0.55;;;;;;;;;;5067114;28;20116;-45
2022/02/19 05:07:53;;;;;;;2.13;0.90;;;;;;;;;;5067076;28;20525;-51
2022/02/19 05:10:19;;;;;;;1.13;0.50;;;;;;;;;;5061935;28;20049;-46
2022/02/19 05:12:46;;;;;;;0.98;0.43;;;;;;;;;;5065029;28;20111;-45
2022/02/19 05:15:12;;;;;;;1.90;0.60;;;;;;;;;;5062144;28;20690;-46
2022/02/19 05:17:45;;;;;;;3.08;0.77;;;;;;;;;;5063585;28;20504;-46
2022/02/19 05:20:12;;;;;;;1.60;0.75;;;;;;;;;;5045417;28;20550;-44
2022/02/19 05:22:38;;;;;;;1.38;0.70;;;;;;;;;;5066651;28;20044;-45
2022/02/19 05:25:04;;;;;;;1.60;0.95;;;;;;;;;;5066296;28;20017;-45
2022/02/19 05:27:30;;;;;;;3.13;0.77;;;;;;;;;;5062854;28;20032;-45
2022/02/19 05:29:56;;;;;;;4.97;1.13;;;;;;;;;;5058254;28;20028;-46
2022/02/19 05:32:23;;;;;;;2.53;0.60;;;;;;;;;;5065586;28;20067;-45
2022/02/19 05:34:50;;;;;;;1.30;0.70;;;;;;;;;;5074630;28;20020;-45
2022/02/19 05:37:16;;;;;;;0.95;0.57;;;;;;;;;;5074012;28;20040;-49
2022/02/19 05:39:42;;;;;;;1.58;0.70;;;;;;;;;;5053880;28;20037;-49
2022/02/19 05:42:08;;;;;;;3.65;1.08;;;;;;;;;;5065316;28;20450;-46
2022/02/19 05:44:34;;;;;;;1.60;0.60;;;;;;;;;;5073690;28;20029;-49
2022/02/19 05:47:00;;;;;;;1.10;0.70;;;;;;;;;;5072433;28;20025;-45
2022/02/19 05:49:26;;;;;;;1.35;0.73;;;;;;;;;;5067408;28;20025;-45
2022/02/19 05:51:52;;;;;;;1.73;0.80;;;;;;;;;;5063876;28;20048;-46
2022/02/19 05:54:18;;;;;;;2.40;0.63;;;;;;;;;;5062044;28;20539;-49
2022/02/19 05:56:45;;;;;;;1.50;0.43;;;;;;;;;;5062673;28;20053;-49
2022/02/19 05:59:11;;;;;;;3.03;0.80;;;;;;;;;;5062424;28;20037;-45
2022/02/19 06:01:37;;;;;;;2.70;0.95;;;;;;;;;;5066141;28;20043;-46
2022/02/19 06:04:03;;;;;;;2.15;0.88;;;;;;;;;;5062862;28;20029;-47
2022/02/19 06:06:29;;;;;;;1.42;0.70;;;;;;;;;;5060939;28;20104;-45
2022/02/19 06:08:55;;;;;;;2.60;0.75;;;;;;;;;;5063100;28;20809;-50
2022/02/19 06:11:21;;;;;;;2.85;0.93;;;;;;;;;;5065885;28;20028;-49
2022/02/19 06:13:47;;;;;;;2.28;0.73;;;;;;;;;;5063711;28;20043;-49
2022/02/19 06:16:13;;;;;;;2.67;1.30;;;;;;;;;;5063789;28;20831;-47
2022/02/19 06:18:39;;;;;;;2.55;0.60;;;;;;;;;;5061891;28;20041;-49
2022/02/19 06:21:05;;;;;;;1.88;0.90;;;;;;;;;;5062569;28;20096;-48
2022/02/19 06:23:31;;;;;;;2.45;1.00;;;;;;;;;;5063416;28;20025;-53
2022/02/19 06:25:57;;;;;;;3.08;1.08;;;;;;;;;;5060659;28;20017;-50
2022/02/19 06:28:23;;;;;;;1.92;0.82;;;;;;;;;;5063273;28;20033;-49
2022/02/19 06:30:49;;;;;;;2.63;0.88;;;;;;;;;;5063260;28;20029;-50
2022/02/19 06:33:16;;;;;;;1.60;0.50;;;;;;;;;;5062424;28;20108;-48
2022/02/19 06:35:42;;;;;;;4.50;0.70;;;;;;;;;;5066475;28;20029;-48
2022/02/19 06:38:08;;;;;;;9.55;1.02;;;;;;;;;;5071457;28;20527;-48
2022/02/19 06:40:34;;;;;;;3.88;1.23;;;;;;;;;;5072423;28;20070;-48
2022/02/19 06:43:00;;;;;;;5.28;1.10;;;;;;;;;;5071746;28;20024;-46
2022/02/19 06:45:26;;;;;;;2.78;0.60;;;;;;;;;;5072286;28;20020;-46
2022/02/19 06:47:52;;;;;;;2.83;0.88;;;;;;;;;;5072321;28;20512;-49
2022/02/19 06:50:18;;;;;;;1.75;0.85;;;;;;;;;;5071647;28;20048;-50
2022/02/19 06:52:44;;;;;;;3.13;0.60;;;;;;;;;;5059695;28;20021;-45
2022/02/19 06:55:10;;;;;;;8.25;0.90;;;;;;;;;;5063645;28;20032;-46
2022/02/19 06:57:39;;;;;;;1.60;0.50;;;;;;;;;;5072180;28;20028;-47
2022/02/19 07:00:06;;;;;;;2.65;0.93;;;;;;;;;;5071554;28;20474;-47
2022/02/19 07:02:32;;;;;;;1.77;0.65;;;;;;;;;;5071561;28;20037;-46
2022/02/19 07:04:58;;;;;;;2.72;0.95;;;;;;;;;;5071211;28;20130;-52
2022/02/19 07:07:24;;;;;;;4.03;0.80;;;;;;;;;;5071724;28;20028;-47
2022/02/19 07:09:50;;;;;;;2.22;0.60;;;;;;;;;;5071642;28;20035;-46
2022/02/19 07:12:16;;;;;;;3.47;0.98;;;;;;;;;;5071156;28;20032;-49
2022/02/19 07:14:42;;;;;;;2.83;0.80;;;;;;;;;;5072354;28;20032;-47
2022/02/19 07:17:09;;;;;;;4.30;0.80;;;;;;;;;;5071321;28;20365;-46
2022/02/19 07:19:36;;;;;;;2.17;0.82;;;;;;;;;;5071565;28;20040;-46
2022/02/19 07:22:02;;;;;;;1.33;0.50;;;;;;;;;;5070340;28;20029;-47
2022/02/19 07:24:28;;;;;;;4.70;1.27;;;;;;;;;;5054104;28;20020;-45
2022/02/19 07:26:55;;;;;;;2.22;0.77;;;;;;;;;;5072015;28;20029;-46
2022/02/19 07:29:21;;;;;;;2.30;1.13;;;;;;;;;;5071529;28;20038;-45
2022/02/19 07:31:48;;;;;;;3.90;1.20;;;;;;;;;;5071215;28;20115;-45
2022/02/19 07:34:14;;;;;;;3.08;1.00;;;;;;;;;;5070827;28;20351;-44
2022/02/19 07:36:40;;;;;;;3.05;0.70;;;;;;;;;;5071810;28;20048;-44
2022/02/19 07:39:09;;;;;;;1.95;0.77;;;;;;;;;;5071144;28;20162;-44
2022/02/19 07:41:37;;;;;;;3.17;0.80;;;;;;;;;;5071578;28;20128;-44
2022/02/19 07:44:03;;;;;;;2.85;0.85;;;;;;;;;;5070693;28;20100;-46
2022/02/19 07:46:29;;;;;;;3.80;1.08;;;;;;;;;;5071923;28;20025;-45
2022/02/19 07:48:55;;;;;;;8.55;1.15;;;;;;;;;;5071393;28;20028;-45
2022/02/19 07:59:35;;;;;;;4.30;0.90;;;;;;;;;;5071226;28;20043;-44
2022/02/19 08:02:01;;;;;;;2.40;1.00;;;;;;;;;;5070376;28;20047;-51
2022/02/19 08:04:27;;;;;;;6.38;3.10;;;;;;;;;;5071575;28;20466;-45
2022/02/19 08:06:53;;;;;;;28.38;13.35;;;;;;;;;;5053272;28;20032;-45
2022/02/19 08:09:19;;;;;;;31.98;14.93;;;;;;;;;;5069644;28;20028;-45
2022/02/19 08:11:45;;;;;;;20.70;11.63;;;;;;;;;;5070956;28;20033;-49
2022/02/19 08:14:11;;;;;;;34.13;16.52;;;;;;;;;;5069358;28;20082;-44
2022/02/19 08:16:38;;;;;;;38.30;17.02;;;;;;;;;;5071559;28;20025;-45
2022/02/19 08:19:04;;;;;;;40.85;17.58;;;;;;;;;;5070615;28;20060;-49
2022/02/19 08:21:30;;;;;;;38.83;18.15;;;;;;;;;;5074707;28;20055;-46
2022/02/19 08:23:56;;;;;;;33.45;16.08;;;;;;;;;;5075295;28;20028;-44
2022/02/19 08:26:24;;;;;;;36.45;17.65;;;;;;;;;;5074188;28;20256;-45
2022/02/19 08:28:53;;;;;;;34.63;15.48;;;;;;;;;;5075253;28;20103;-45
2022/02/19 08:31:20;;;;;;;31.92;14.48;;;;;;;;;;5055891;28;20041;-42
2022/02/19 08:33:46;;;;;;;34.53;14.25;;;;;;;;;;5075108;28;20017;-44
2022/02/19 08:36:12;;;;;;;32.13;14.23;;;;;;;;;;5074297;28;20021;-46
2022/02/19 08:38:38;;;;;;;28.92;12.73;;;;;;;;;;5075051;28;20045;-45
2022/02/19 08:41:04;;;;;;;28.90;13.05;;;;;;;;;;5073764;28;20036;-50
2022/02/19 08:43:30;;;;;;;26.08;11.65;;;;;;;;;;5074600;28;20025;-46
2022/02/19 08:45:56;;;;;;;24.52;10.35;;;;;;;;;;5074766;28;20466;-46
2022/02/19 08:48:22;;;;;;;25.38;11.57;;;;;;;;;;5073851;28;20619;-49
2022/02/19 08:50:48;;;;;;;27.00;11.63;;;;;;;;;;5074555;28;20017;-50
2022/02/19 08:53:16;;;;;;;25.13;11.35;;;;;;;;;;5073862;28;20035;-48
2022/02/19 08:55:42;;;;;;;25.17;9.52;;;;;;;;;;5074586;28;20040;-47
2022/02/19 08:58:08;;;;;;;21.33;10.70;;;;;;;;;;5073862;28;20040;-50
2022/02/19 09:00:35;;;;;;;23.40;9.88;;;;;;;;;;5074333;28;20024;-47
2022/02/19 09:03:01;;;;;;;24.30;9.93;;;;;;;;;;5074738;28;20028;-48
2022/02/19 09:05:27;;;;;;;24.17;9.38;;;;;;;;;;5073958;28;20060;-47
2022/02/19 09:07:53;;;;;;;19.17;8.07;;;;;;;;;;5073590;28;20067;-46
2022/02/19 09:10:19;;;;;;;26.40;9.20;;;;;;;;;;5073802;28;20025;-48
2022/02/19 09:12:47;;;;;;;19.42;8.75;;;;;;;;;;5074225;28;20032;-45
2022/02/19 09:15:14;;;;;;;20.42;9.63;;;;;;;;;;5073542;28;20021;-46
2022/02/19 09:17:40;;;;;;;19.33;7.93;;;;;;;;;;5073930;28;20043;-46
2022/02/19 09:20:09;;;;;;;16.00;7.10;;;;;;;;;;5073075;28;20024;-50
2022/02/19 09:22:35;;;;;;;16.88;7.30;;;;;;;;;;5073854;28;20078;-45
2022/02/19 09:25:01;;;;;;;20.00;7.72;;;;;;;;;;5074243;28;20032;-45
2022/02/19 09:27:27;;;;;;;15.85;7.40;;;;;;;;;;5073448;28;20082;-45
2022/02/19 09:29:53;;;;;;;18.05;7.72;;;;;;;;;;5074223;28;20029;-44
2022/02/19 09:32:19;;;;;;;13.35;7.40;;;;;;;;;;5066391;28;20104;-45
2022/02/19 09:34:45;;;;;;;13.05;6.15;;;;;;;;;;5069097;28;20036;-44
2022/02/19 09:37:11;;;;;;;14.75;6.70;;;;;;;;;;5060310;28;20048;-45
2022/02/19 09:39:37;;;;;;;17.65;6.85;;;;;;;;;;5093435;28;20470;-45
2022/02/19 09:42:03;;;;;;;15.73;6.45;;;;;;;;;;5094020;28;20024;-52
2022/02/19 09:44:30;;;;;;;13.45;5.63;;;;;;;;;;5089331;28;20157;-46
2022/02/19 09:46:59;;;;;;;12.82;5.30;;;;;;;;;;5093977;28;20059;-45
2022/02/19 09:49:25;;;;;;;14.02;5.72;;;;;;;;;;5093112;28;20072;-47
2022/02/19 09:51:53;;;;;;;13.70;5.50;;;;;;;;;;5093918;28;20050;-44
2022/02/19 09:54:19;;;;;;;11.95;5.40;;;;;;;;;;5084210;28;20023;-46
2022/02/19 09:56:45;;;;;;;14.32;5.90;;;;;;;;;;5093786;28;20037;-45
2022/02/19 09:59:12;;;;;;;9.43;4.55;;;;;;;;;;5092775;28;20039;-44
2022/02/19 10:01:40;;;;;;;11.55;5.15;;;;;;;;;;5093519;28;20055;-47
2022/02/19 10:04:06;;;;;;;12.25;6.03;;;;;;;;;;5092859;28;20032;-50
2022/02/19 10:06:33;;;;;;;15.32;5.22;;;;;;;;;;5093281;28;20028;-45
2022/02/19 10:09:13;;;;;;;14.00;5.32;;;;;;;;;;5093364;28;20060;-48
2022/02/19 10:11:39;;;;;;;10.93;4.00;;;;;;;;;;5093267;28;20032;-44
2022/02/19 10:14:24;;;;;;;18.10;5.10;;;;;;;;;;5092693;28;20032;-50
2022/02/19 10:17:03;;;;;;;13.50;4.88;;;;;;;;;;5093395;28;20024;-45
2022/02/19 10:19:30;;;;;;;9.35;3.45;;;;;;;;;;5092401;28;20036;-45
2022/02/19 10:22:09;;;;;;;10.95;4.97;;;;;;;;;;5093049;28;20028;-45
2022/02/19 10:24:38;;;;;;;12.32;5.10;;;;;;;;;;5098956;28;20484;-48
2022/02/19 10:27:04;;;;;;;8.40;4.20;;;;;;;;;;5092999;28;20024;-52
2022/02/19 10:29:32;;;;;;;7.78;3.92;;;;;;;;;;5092908;28;20445;-45
2022/02/19 10:31:58;;;;;;;11.50;4.35;;;;;;;;;;5092972;28;20028;-44
2022/02/19 10:34:24;;;;;;;9.38;4.70;;;;;;;;;;5091814;28;20039;-44
2022/02/19 10:36:52;;;;;;;7.35;3.60;;;;;;;;;;5090959;28;20020;-44
2022/02/19 10:39:27;;;;;;;12.88;4.18;;;;;;;;;;5071665;28;20086;-45
2022/02/19 10:41:54;;;;;;;7.28;3.45;;;;;;;;;;5072636;28;20028;-43
2022/02/19 10:44:32;;;;;;;10.52;4.15;;;;;;;;;;5069799;28;20052;-44
2022/02/19 10:47:17;;;;;;;7.50;3.83;;;;;;;;;;5072421;28;20355;-44
2022/02/19 10:50:02;;;;;;;10.23;3.70;;;;;;;;;;5072645;28;20103;-44
2022/02/19 10:52:28;;;;;;;11.85;3.55;;;;;;;;;;5071482;28;20041;-44
2022/02/19 10:54:54;;;;;;;9.70;3.55;;;;;;;;;;5068360;28;20029;-44
2022/02/19 10:57:22;;;;;;;8.48;3.13;;;;;;;;;;5071290;28;20107;-44
2022/02/19 10:59:48;;;;;;;8.13;3.20;;;;;;;;;;5071840;28;20043;-46
2022/02/19 11:02:14;;;;;;;9.50;4.10;;;;;;;;;;5071139;28;20024;-43
2022/02/19 11:04:42;;;;;;;7.78;3.65;;;;;;;;;;5071627;28;20537;-44
2022/02/19 11:07:08;;;;;;;6.80;3.72;;;;;;;;;;5071729;28;20024;-51
2022/02/19 11:09:34;;;;;;;6.80;3.42;;;;;;;;;;5071743;28;20036;-44
2022/02/19 11:12:01;;;;;;;6.63;2.80;;;;;;;;;;5071732;28;20028;-44
2022/02/19 11:14:27;;;;;;;5.85;2.90;;;;;;;;;;5070757;28;20134;-44
2022/02/19 11:16:55;;;;;;;10.70;3.78;;;;;;;;;;5071536;28;20098;-44
2022/02/19 11:19:21;;;;;;;7.10;3.17;;;;;;;;;;5071108;28;20040;-44
2022/02/19 11:21:48;;;;;;;7.15;3.08;;;;;;;;;;5071655;28;20048;-45
2022/02/19 11:24:16;;;;;;;6.05;3.28;;;;;;;;;;5070398;28;20024;-44
2022/02/19 11:26:44;;;;;;;5.88;2.53;;;;;;;;;;5071756;28;20082;-44
2022/02/19 11:29:22;;;;;;;7.57;3.47;;;;;;;;;;5071017;28;20089;-44
2022/02/19 11:31:49;;;;;;;6.43;2.97;;;;;;;;;;5071303;28;20428;-45
2022/02/19 11:34:19;;;;;;;5.97;2.60;;;;;;;;;;5070895;28;20039;-44
2022/02/19 11:36:45;;;;;;;7.18;3.10;;;;;;;;;;5072488;28;20024;-44
2022/02/19 11:39:12;;;;;;;6.38;3.33;;;;;;;;;;5090908;28;20503;-45
2022/02/19 11:41:43;;;;;;;4.95;2.58;;;;;;;;;;5091715;28;20029;-44
2022/02/19 11:44:18;;;;;;;5.93;2.72;;;;;;;;;;5091013;28;20049;-51
2022/02/19 11:46:45;;;;;;;7.88;3.35;;;;;;;;;;5091737;28;20028;-45
2022/02/19 11:49:21;;;;;;;6.20;2.40;;;;;;;;;;5091319;28;20031;-46
2022/02/19 11:52:08;;;;;;;5.10;2.15;;;;;;;;;;5091739;28;20078;-46
2022/02/19 11:54:34;;;;;;;8.32;2.75;;;;;;;;;;5081038;28;20083;-45
2022/02/19 11:57:14;;;;;;;5.47;2.90;;;;;;;;;;5095766;28;20362;-45
2022/02/19 11:59:44;;;;;;;5.32;2.53;;;;;;;;;;5095751;28;20054;-44
2022/02/19 12:02:14;;;;;;;8.23;2.67;;;;;;;;;;5095022;28;20477;-52
2022/02/19 12:04:40;;;;;;;4.18;2.25;;;;;;;;;;5095828;28;20377;-45
2022/02/19 12:07:06;;;;;;;6.00;2.22;;;;;;;;;;5095636;28;20020;-45
2022/02/19 12:09:32;;;;;;;4.85;2.35;;;;;;;;;;5094976;28;20047;-44
2022/02/19 12:12:03;;;;;;;8.68;2.10;;;;;;;;;;5095782;28;20103;-44
2022/02/19 12:14:51;;;;;;;5.00;2.77;;;;;;;;;;5094818;28;20024;-44
2022/02/19 12:17:18;;;;;;;5.50;2.00;;;;;;;;;;5094869;28;20012;-44
2022/02/19 12:19:52;;;;;;;6.13;2.13;;;;;;;;;;5095618;28;20032;-44
2022/02/19 12:22:29;;;;;;;5.75;2.40;;;;;;;;;;5094788;28;20028;-44
2022/02/19 12:24:55;;;;;;;6.85;2.35;;;;;;;;;;5094780;28;20020;-44
2022/02/19 12:27:21;;;;;;;4.20;2.15;;;;;;;;;;5094365;28;20035;-44
2022/02/19 12:29:51;;;;;;;5.55;2.58;;;;;;;;;;5095345;28;20036;-44
2022/02/19 12:32:20;;;;;;;4.25;2.00;;;;;;;;;;5094157;28;20038;-44
2022/02/19 12:34:59;;;;;;;3.63;2.17;;;;;;;;;;5095247;28;20117;-44
2022/02/19 12:37:31;;;;;;;4.97;2.03;;;;;;;;;;5085920;28;20045;-44
2022/02/19 12:40:00;;;;;;;3.85;1.80;;;;;;;;;;5075085;28;20028;-44
2022/02/19 12:42:31;;;;;;;3.50;2.17;;;;;;;;;;5073858;28;20032;-46
2022/02/19 12:45:08;;;;;;;4.43;1.80;;;;;;;;;;5055131;28;20414;-44
2022/02/19 12:47:35;;;;;;;5.40;1.98;;;;;;;;;;5069504;28;20020;-44
2022/02/19 12:50:01;;;;;;;5.80;2.70;;;;;;;;;;5074398;28;20035;-44
2022/02/19 12:52:28;;;;;;;5.80;2.00;;;;;;;;;;5073545;28;20500;-45
2022/02/19 12:54:54;;;;;;;5.65;2.22;;;;;;;;;;5066641;28;20020;-44
2022/02/19 12:57:21;;;;;;;4.30;1.70;;;;;;;;;;5074664;28;20111;-44
2022/02/19 12:59:48;;;;;;;6.07;2.15;;;;;;;;;;5074817;28;20033;-44
2022/02/19 13:02:21;;;;;;;5.38;1.80;;;;;;;;;;5073863;28;20081;-44
2022/02/19 13:04:47;;;;;;;6.57;2.47;;;;;;;;;;5074476;28;20029;-43
2022/02/19 13:07:19;;;;;;;5.25;2.03;;;;;;;;;;5072419;28;20491;-49
2022/02/19 13:09:45;;;;;;;;;;;;;;;;;;5074443;28;20045;-45
2022/02/19 13:12:11;;;;;;;4.70;1.65;;;;;;;;;;5073812;28;19916;-53
2022/02/19 13:14:48;;;;;;;3.15;1.45;;;;;;;;;;5073952;28;20469;-46
2022/02/19 13:17:14;;;;;;;4.97;1.77;;;;;;;;;;5073347;28;20492;-46
2022/02/19 13:19:41;;;;;;;7.13;1.70;;;;;;;;;;5074379;28;20036;-46
2022/02/19 13:22:11;;;;;;;5.70;1.83;;;;;;;;;;5074109;28;20028;-46
2022/02/19 13:24:44;;;;;;;9.07;1.60;;;;;;;;;;5073640;28;20032;-45
2022/02/19 13:27:11;;;;;;;4.53;1.85;;;;;;;;;;5073018;28;20512;-54
2022/02/19 13:29:37;;;;;;;5.15;1.83;;;;;;;;;;5073629;28;20033;-45
2022/02/19 13:32:07;;;;;;;7.70;2.38;;;;;;;;;;5073581;28;20036;-50
2022/02/19 13:34:36;;;;;;;4.28;1.58;;;;;;;;;;5073347;28;20030;-45
2022/02/19 13:37:03;;;;;;;5.50;2.30;;;;;;;;;;5073439;28;20049;-46
2022/02/19 13:39:40;;;;;;;5.22;2.17;;;;;;;;;;5072669;28;20041;-45
2022/02/19 13:42:06;;;;;;;5.95;1.65;;;;;;;;;;5073150;28;20486;-49
2022/02/19 13:44:43;;;;;;;9.43;2.53;;;;;;;;;;5072714;28;20069;-45
2022/02/19 13:47:09;;;;;;;4.38;1.50;;;;;;;;;;5073605;28;20466;-53
2022/02/19 13:49:38;;;;;;;3.97;1.85;;;;;;;;;;5072772;28;20043;-45
2022/02/19 13:52:04;;;;;;;4.75;1.50;;;;;;;;;;5074126;28;20016;-47
2022/02/19 13:54:39;;;;;;;6.50;1.75;;;;;;;;;;5072526;28;20071;-45
2022/02/19 13:57:21;;;;;;;6.28;1.83;;;;;;;;;;5073450;28;20028;-46
2022/02/19 14:00:00;;;;;;;3.15;1.45;;;;;;;;;;5073044;28;20090;-47
2022/02/19 14:02:27;;;;;;;3.00;1.33;;;;;;;;;;5072716;28;20128;-45
2022/02/19 14:04:58;;;;;;;5.90;2.40;;;;;;;;;;5073280;28;20028;-48
2022/02/19 14:07:24;;;;;;;8.48;1.80;;;;;;;;;;5072383;28;20377;-47
2022/02/19 14:10:16;;;;;;;6.80;1.20;;;;;;;;;;5073050;28;20040;-47
2022/02/19 14:12:42;;;;;;;4.28;1.25;;;;;;;;;;5069022;28;20551;-46
2022/02/19 14:15:10;;;;;;;4.47;2.05;;;;;;;;;;5072733;28;20032;-47
2022/02/19 14:17:46;;;;;;;4.28;1.85;;;;;;;;;;5072403;28;20466;-45
2022/02/19 14:20:13;;;;;;;4.07;1.23;;;;;;;;;;5072447;28;20032;-53
2022/02/19 14:22:42;;;;;;;5.50;1.42;;;;;;;;;;5073002;28;20107;-45
2022/02/19 14:25:13;;;;;;;4.00;1.55;;;;;;;;;;5072674;28;20033;-45
2022/02/19 14:28:06;;;;;;;4.57;1.43;;;;;;;;;;5072696;28;20028;-45
2022/02/19 14:30:36;;;;;;;3.67;1.60;;;;;;;;;;5052923;28;20052;-46
2022/02/19 14:33:04;;;;;;;3.55;1.30;;;;;;;;;;5072747;28;20024;-46
2022/02/19 14:35:32;;;;;;;4.22;1.52;;;;;;;;;;5071941;28;20191;-46
2022/02/19 14:37:58;;;;;;;4.43;1.40;;;;;;;;;;5072679;28;20080;-45
2022/02/19 14:40:24;;;;;;;8.20;2.15;;;;;;;;;;5071591;28;20039;-45
2022/02/19 14:42:51;;;;;;;2.35;1.25;;;;;;;;;;5072456;28;20114;-49
2022/02/19 14:45:17;;;;;;;3.90;1.40;;;;;;;;;;5058105;28;20021;-49
2022/02/19 14:47:43;;;;;;;3.60;1.25;;;;;;;;;;5072387;28;20537;-52
2022/02/19 14:50:10;;;;;;;2.13;0.98;;;;;;;;;;5072567;28;20025;-47